Time;durP1;ratioP1;P1;durP2;ratioP2;P2;SDS_P1;SDS_P2;PMS_P1;PMS_P2;Temp;Humidity;BMP_temperature;BMP_pressure;BME280_temperature;BME280_humidity;BME280_pressure;Samples;Min_cycle;Max_cycle;Signal;HPM_P1;HPM_P2
2023/09/22 00:00:18;;;;;;;13.35;3.35;;;;;;;17.36;100.00;97647.00;5092209;28;20024;-46
2023/09/22 00:02:45;;;;;;;7.00;2.17;;;;;;;17.19;100.00;97651.03;5093449;28;20501;-46
2023/09/22 00:05:14;;;;;;;11.20;5.38;;;;;;;16.87;100.00;97649.47;5093163;28;20052;-46
2023/09/22 00:07:41;;;;;;;27.90;22.30;;;;;;;16.65;100.00;97647.06;5092026;28;20028;-46
2023/09/22 00:10:08;;;;;;;27.33;21.27;;;;;;;16.51;100.00;97634.34;5093233;28;20513;-45
2023/09/22 00:12:34;;;;;;;10.85;6.55;;;;;;;16.48;100.00;97642.84;5091931;28;20031;-45
2023/09/22 00:15:01;;;;;;;15.93;7.93;;;;;;;16.37;100.00;97643.88;5093189;28;20027;-46
2023/09/22 00:17:27;;;;;;;23.00;6.47;;;;;;;16.28;100.00;97646.25;5093213;28;20059;-45
2023/09/22 00:19:54;;;;;;;9.32;3.50;;;;;;;16.36;100.00;97655.53;5093155;28;20020;-46
2023/09/22 00:22:20;;;;;;;12.40;3.80;;;;;;;16.42;100.00;97670.38;5093017;28;20024;-46
2023/09/22 00:24:45;;;;;;;5.47;2.42;;;;;;;16.36;100.00;97672.22;5092939;28;20028;-46
2023/09/22 00:27:11;;;;;;;5.07;1.80;;;;;;;16.34;100.00;97678.84;5091623;28;20557;-46
2023/09/22 00:29:37;;;;;;;5.28;1.63;;;;;;;16.28;100.00;97690.44;5091649;28;20035;-46
2023/09/22 00:32:03;;;;;;;4.90;1.33;;;;;;;16.17;100.00;97695.72;5092606;28;20039;-46
2023/09/22 00:34:32;;;;;;;9.32;5.85;;;;;;;16.06;100.00;97698.63;5091561;28;20062;-46
2023/09/22 00:36:58;;;;;;;5.55;1.83;;;;;;;16.02;100.00;97713.41;5092813;28;20020;-46
2023/09/22 00:39:23;;;;;;;13.10;3.33;;;;;;;16.03;100.00;97725.59;5092793;28;20093;-46
2023/09/22 00:41:49;;;;;;;9.52;3.60;;;;;;;16.06;100.00;97727.75;5092674;28;20077;-46
2023/09/22 00:44:15;;;;;;;90.28;17.20;;;;;;;16.29;100.00;97723.81;5091312;28;20028;-46
2023/09/22 00:46:41;;;;;;;87.07;18.85;;;;;;;16.86;100.00;97725.53;5092519;28;20036;-46
2023/09/22 00:49:08;;;;;;;70.65;13.38;;;;;;;17.33;100.00;97716.50;5092501;28;20028;-46
2023/09/22 00:51:34;;;;;;;109.35;20.27;;;;;;;17.70;100.00;97710.03;5091174;28;20031;-46
2023/09/22 00:54:01;;;;;;;149.73;28.00;;;;;;;17.96;100.00;97704.66;5091139;28;20032;-46
2023/09/22 00:56:28;;;;;;;112.68;21.65;;;;;;;18.07;100.00;97695.59;5092437;28;20024;-46
2023/09/22 00:58:53;;;;;;;143.88;26.23;;;;;;;18.22;100.00;97688.59;5091186;28;20024;-47
2023/09/22 01:01:24;;;;;;;85.25;14.82;;;;;;;18.20;100.00;97677.47;5092408;28;20024;-47
2023/09/22 01:03:51;;;;;;;64.65;13.48;;;;;;;18.08;100.00;97683.88;5092602;28;20489;-47
2023/09/22 01:06:18;;;;;;;68.60;13.00;;;;;;;17.93;100.00;97676.00;5091965;28;20405;-46
2023/09/22 01:08:43;;;;;;;87.88;14.57;;;;;;;17.82;100.00;97682.38;5092272;28;20032;-46
2023/09/22 01:11:09;;;;;;;29.08;8.63;;;;;;;17.81;100.00;97683.44;5090878;28;20035;-47
2023/09/22 01:13:35;;;;;;;27.58;7.63;;;;;;;17.71;100.00;97676.34;5090878;28;20031;-46
2023/09/22 01:16:01;;;;;;;21.70;5.72;;;;;;;17.60;100.00;97680.88;5092057;28;20039;-46
2023/09/22 01:18:28;;;;;;;40.33;9.38;;;;;;;17.53;100.00;97680.38;5092122;28;20024;-46
2023/09/22 01:20:57;;;;;;;28.45;7.10;;;;;;;17.65;100.00;97686.16;5091105;28;20050;-46
2023/09/22 01:23:22;;;;;;;31.20;6.70;;;;;;;17.60;100.00;97678.22;5092056;28;20024;-46
2023/09/22 01:25:48;;;;;;;20.73;5.70;;;;;;;17.53;100.00;97670.56;5090582;28;20409;-46
2023/09/22 01:28:14;;;;;;;8.90;2.15;;;;;;;17.36;100.00;97672.72;5092010;28;20023;-46
2023/09/22 01:30:40;;;;;;;5.07;1.63;;;;;;;16.99;100.00;97673.06;5090655;28;20442;-46
2023/09/22 01:33:06;;;;;;;11.27;6.30;;;;;;;16.71;100.00;97677.81;5091907;28;20539;-46
2023/09/22 01:35:33;;;;;;;3.70;1.88;;;;;;;16.47;100.00;97674.88;5090577;28;20114;-46
2023/09/22 01:38:27;;;;;;;6.70;1.80;;;;;;;16.21;100.00;97671.38;5091847;28;20048;-46
2023/09/22 01:40:54;;;;;;;7.00;1.90;;;;;;;15.91;100.00;97671.03;5091906;28;20081;-46
2023/09/22 01:43:20;;;;;;;5.57;3.22;;;;;;;15.75;100.00;97682.63;5091883;28;20016;-46
2023/09/22 01:45:45;;;;;;;15.73;9.65;;;;;;;15.74;100.00;97673.09;5095055;28;20394;-46
2023/09/22 01:48:11;;;;;;;3.88;1.85;;;;;;;15.74;100.00;97665.16;5096021;28;20074;-46
2023/09/22 01:50:39;;;;;;;4.03;1.85;;;;;;;15.68;100.00;97666.97;5094728;28;20570;-46
2023/09/22 01:53:09;;;;;;;6.05;1.55;;;;;;;15.63;100.00;97671.44;5096233;28;20024;-46
2023/09/22 01:55:36;;;;;;;10.32;2.10;;;;;;;15.54;100.00;97665.84;5094587;28;20028;-46
2023/09/22 01:58:04;;;;;;;3.60;1.35;;;;;;;15.38;100.00;97668.41;5095860;28;20386;-46
2023/09/22 02:00:30;;;;;;;2.22;1.42;;;;;;;15.20;100.00;97658.25;5095840;28;20028;-46
2023/09/22 02:02:56;;;;;;;5.50;1.80;;;;;;;15.18;100.00;97655.84;5095753;28;20047;-46
2023/09/22 02:05:22;;;;;;;6.78;2.03;;;;;;;15.12;100.00;97677.22;5094106;28;20072;-46
2023/09/22 02:07:48;;;;;;;3.75;1.40;;;;;;;15.00;100.00;97687.19;5095717;28;20099;-45
2023/09/22 02:10:15;;;;;;;4.63;2.85;;;;;;;14.90;100.00;97707.19;5077384;28;20177;-46
2023/09/22 02:12:42;;;;;;;5.25;3.80;;;;;;;14.91;100.00;97705.34;5094392;28;20028;-46
2023/09/22 02:15:12;;;;;;;5.05;2.38;;;;;;;15.02;100.00;97714.16;5095493;28;20035;-47
2023/09/22 02:17:42;;;;;;;6.22;2.20;;;;;;;15.22;100.00;97718.78;5094238;28;20028;-46
2023/09/22 02:20:29;;;;;;;7.22;2.35;;;;;;;15.53;100.00;97722.41;5095379;28;20077;-46
2023/09/22 02:22:56;;;;;;;7.30;1.73;;;;;;;15.70;100.00;97728.34;5094979;28;20040;-46
2023/09/22 02:25:22;;;;;;;15.48;7.25;;;;;;;15.89;100.00;97738.50;5093914;28;20089;-47
2023/09/22 02:27:49;;;;;;;7.95;3.42;;;;;;;16.04;100.00;97743.06;5093967;28;20024;-46
2023/09/22 02:30:16;;;;;;;10.00;3.10;;;;;;;16.19;100.00;97735.19;5093965;28;20027;-46
2023/09/22 02:32:43;;;;;;;3.20;1.30;;;;;;;16.38;100.00;97738.16;5095198;28;20083;-46
2023/09/22 02:35:09;;;;;;;4.10;1.73;;;;;;;16.26;100.00;97729.63;5095110;28;20024;-47
2023/09/22 02:37:35;;;;;;;2.67;1.38;;;;;;;16.02;100.00;97740.69;5093823;28;20370;-47
2023/09/22 02:40:02;;;;;;;2.75;2.30;;;;;;;15.90;100.00;97735.59;5095095;28;20103;-46
2023/09/22 02:42:28;;;;;;;5.15;2.03;;;;;;;15.74;100.00;97737.38;5095135;28;20030;-47
2023/09/22 02:44:55;;;;;;;5.43;1.38;;;;;;;15.64;100.00;97739.94;5094917;28;20028;-46
2023/09/22 02:47:20;;;;;;;5.95;1.33;;;;;;;15.58;100.00;97740.97;5095207;28;20023;-47
2023/09/22 02:49:47;;;;;;;8.70;2.40;;;;;;;15.63;100.00;97738.34;5093725;28;20024;-46
2023/09/22 02:52:14;;;;;;;10.25;6.40;;;;;;;15.96;100.00;97713.41;5076794;28;20028;-47
2023/09/22 02:54:39;;;;;;;4.40;1.88;;;;;;;16.17;100.00;97702.88;5094759;28;20505;-46
2023/09/22 02:57:06;;;;;;;3.40;1.60;;;;;;;16.07;100.00;97685.09;5094658;28;20016;-46
2023/09/22 02:59:31;;;;;;;4.75;1.30;;;;;;;15.75;100.00;97685.25;5094666;28;20035;-46
2023/09/22 03:01:59;;;;;;;4.55;1.60;;;;;;;15.52;100.00;97686.47;5093269;28;20401;-47
2023/09/22 03:04:25;;;;;;;3.30;1.30;;;;;;;15.41;100.00;97696.16;5094309;28;20506;-46
2023/09/22 03:06:51;;;;;;;2.95;1.63;;;;;;;15.45;100.00;97688.53;5093505;28;20035;-46
2023/09/22 03:09:16;;;;;;;8.75;1.90;;;;;;;15.54;100.00;97671.13;5094515;28;20020;-46
2023/09/22 03:11:42;;;;;;;3.55;1.30;;;;;;;15.49;100.00;97644.66;5093141;28;20379;-46
2023/09/22 03:14:08;;;;;;;2.20;1.15;;;;;;;15.35;100.00;97636.38;5094408;28;20489;-46
2023/09/22 03:16:33;;;;;;;5.03;0.90;;;;;;;15.12;100.00;97634.94;5092995;28;20038;-46
2023/09/22 03:18:59;;;;;;;2.97;1.30;;;;;;;14.90;100.00;97641.16;5094315;28;20024;-46
2023/09/22 03:21:26;;;;;;;5.93;5.15;;;;;;;14.75;100.00;97655.06;5094237;28;20059;-46
2023/09/22 03:23:55;;;;;;;1.88;1.00;;;;;;;14.67;100.00;97658.16;5093130;28;20024;-46
2023/09/22 03:26:21;;;;;;;2.55;1.00;;;;;;;14.64;100.00;97650.72;5092747;28;20043;-46
2023/09/22 03:28:48;;;;;;;3.78;2.00;;;;;;;14.57;100.00;97664.16;5092799;28;20017;-46
2023/09/22 03:31:14;;;;;;;6.32;1.30;;;;;;;14.56;100.00;97665.19;5094065;28;20099;-45
2023/09/22 03:33:43;;;;;;;2.83;1.00;;;;;;;14.56;100.00;97656.47;5093955;28;20028;-46
2023/09/22 03:36:10;;;;;;;0.77;0.50;;;;;;;14.56;100.00;97656.47;5093911;28;20031;-46
2023/09/22 03:38:40;;;;;;;1.23;0.90;;;;;;;14.50;100.00;97655.59;5093974;28;20048;-46
2023/09/22 03:41:06;;;;;;;5.85;1.60;;;;;;;14.51;100.00;97653.78;5092538;28;20107;-46
2023/09/22 03:43:32;;;;;;;3.55;1.30;;;;;;;14.51;100.00;97648.50;5075759;28;20087;-46
2023/09/22 03:45:58;;;;;;;11.00;3.50;;;;;;;14.61;100.00;97632.75;5093696;28;20082;-45
2023/09/22 03:48:24;;;;;;;3.42;1.08;;;;;;;14.64;100.00;97631.44;5092449;28;20501;-45
2023/09/22 03:50:50;;;;;;;0.88;0.75;;;;;;;14.61;100.00;97640.69;5092376;28;20084;-46
2023/09/22 03:53:15;;;;;;;9.18;3.92;;;;;;;14.65;100.00;97638.31;5092347;28;20027;-46
2023/09/22 03:55:41;;;;;;;6.90;2.03;;;;;;;14.70;100.00;97641.00;5093602;28;20487;-46
2023/09/22 03:58:07;;;;;;;5.45;1.75;;;;;;;14.81;100.00;97644.50;5092248;28;20028;-46
2023/09/22 04:00:33;;;;;;;4.68;2.45;;;;;;;14.88;100.00;97656.47;5092200;28;20103;-46
2023/09/22 04:03:03;;;;;;;7.03;3.42;;;;;;;15.05;100.00;97658.16;5093460;28;20024;-46
2023/09/22 04:05:29;;;;;;;15.25;6.75;;;;;;;15.30;100.00;97654.88;5093181;28;20044;-46
2023/09/22 04:07:57;;;;;;;7.78;4.47;;;;;;;15.65;100.00;97656.09;5093069;28;20034;-46
2023/09/22 04:10:23;;;;;;;11.55;5.90;;;;;;;15.96;100.00;97663.13;5093278;28;20016;-46
2023/09/22 04:12:50;;;;;;;12.20;3.35;;;;;;;16.24;100.00;97668.19;5093269;28;20032;-46
2023/09/22 04:15:16;;;;;;;10.13;4.95;;;;;;;16.34;100.00;97665.59;5093142;28;20066;-46
2023/09/22 04:17:42;;;;;;;6.57;2.00;;;;;;;16.63;100.00;97671.16;5093122;28;20024;-46
2023/09/22 04:20:11;;;;;;;9.98;2.40;;;;;;;16.94;100.00;97672.00;5091862;28;20016;-46
2023/09/22 04:22:41;;;;;;;3.38;1.58;;;;;;;16.92;100.00;97679.44;5093064;28;20028;-46
2023/09/22 04:25:11;;;;;;;5.95;2.63;;;;;;;16.94;100.00;97677.31;5092995;28;20031;-46
2023/09/22 04:27:43;;;;;;;15.27;1.88;;;;;;;16.86;100.00;97684.97;5092899;28;20030;-46
2023/09/22 04:30:12;;;;;;;5.22;1.00;;;;;;;17.06;100.00;97671.69;5092998;28;20466;-46
2023/09/22 04:32:38;;;;;;;2.28;1.20;;;;;;;16.93;100.00;97670.41;5092797;28;20028;-46
2023/09/22 04:35:07;;;;;;;7.47;1.60;;;;;;;16.66;100.00;97683.09;5092827;28;20020;-46
2023/09/22 04:37:32;;;;;;;5.90;1.15;;;;;;;16.57;100.00;97686.25;5091444;28;20130;-47
2023/09/22 04:39:58;;;;;;;6.28;1.35;;;;;;;16.54;100.00;97680.69;5092697;28;20103;-46
2023/09/22 04:42:25;;;;;;;3.15;1.50;;;;;;;16.49;100.00;97680.69;5074549;28;20059;-46
2023/09/22 04:44:51;;;;;;;2.13;0.98;;;;;;;16.45;100.00;97677.78;5091250;28;20618;-46
2023/09/22 04:47:18;;;;;;;6.85;1.50;;;;;;;16.21;100.00;97680.13;5092896;28;20036;-46
2023/09/22 04:49:43;;;;;;;4.25;1.88;;;;;;;15.94;100.00;97689.03;5092515;28;20055;-46
2023/09/22 04:52:09;;;;;;;3.72;1.17;;;;;;;15.73;100.00;97701.38;5092760;28;20059;-47
2023/09/22 04:54:35;;;;;;;7.25;1.38;;;;;;;15.56;100.00;97695.47;5091149;28;20028;-46
2023/09/22 04:57:00;;;;;;;3.85;1.10;;;;;;;15.53;100.00;97690.69;5074334;28;20020;-46
2023/09/22 04:59:27;;;;;;;26.30;1.75;;;;;;;15.58;100.00;97693.38;5092456;28;20020;-46
2023/09/22 05:01:53;;;;;;;15.98;2.42;;;;;;;15.75;100.00;97698.47;5092340;28;20020;-46
2023/09/22 05:04:18;;;;;;;3.83;1.23;;;;;;;15.91;100.00;97696.69;5092113;28;20020;-46
2023/09/22 05:06:44;;;;;;;5.93;1.20;;;;;;;15.97;100.00;97696.44;5090896;28;20020;-46
2023/09/22 05:09:11;;;;;;;2.97;1.40;;;;;;;15.95;100.00;97701.22;5092303;28;20056;-46
2023/09/22 05:11:37;;;;;;;6.38;1.35;;;;;;;15.85;100.00;97685.28;5090906;28;20020;-46
2023/09/22 05:14:06;;;;;;;9.50;2.47;;;;;;;16.00;100.00;97697.81;5092135;28;20549;-46
2023/09/22 05:16:31;;;;;;;7.82;2.63;;;;;;;16.24;100.00;97694.69;5090778;28;20039;-46
2023/09/22 05:18:59;;;;;;;13.52;4.63;;;;;;;16.49;100.00;97696.59;5091307;28;20028;-46
2023/09/22 05:21:25;;;;;;;6.82;1.95;;;;;;;16.49;100.00;97705.31;5092129;28;20016;-47
2023/09/22 05:23:51;;;;;;;8.82;2.92;;;;;;;16.43;100.00;97701.06;5090661;28;20034;-46
2023/09/22 05:26:17;;;;;;;6.32;1.95;;;;;;;16.30;100.00;97705.03;5091929;28;20026;-46
2023/09/22 05:28:43;;;;;;;20.00;3.97;;;;;;;16.06;100.00;97701.28;5091940;28;20028;-46
2023/09/22 05:31:09;;;;;;;6.85;2.00;;;;;;;15.90;100.00;97700.41;5091900;28;20024;-46
2023/09/22 05:33:38;;;;;;;2.80;1.17;;;;;;;15.84;100.00;97701.44;5090617;28;20381;-46
2023/09/22 05:36:05;;;;;;;6.55;1.85;;;;;;;15.70;100.00;97711.69;5091900;28;20020;-46
2023/09/22 05:38:31;;;;;;;11.77;2.72;;;;;;;15.54;100.00;97710.78;5091839;28;20027;-46
2023/09/22 05:40:58;;;;;;;11.02;2.55;;;;;;;15.49;100.00;97716.03;5090535;28;20021;-46
2023/09/22 05:43:24;;;;;;;11.18;1.58;;;;;;;15.44;100.00;97708.88;5091875;28;20043;-46
2023/09/22 05:45:54;;;;;;;11.20;7.05;;;;;;;15.43;100.00;97707.28;5073725;28;20016;-46
2023/09/22 05:48:21;;;;;;;8.77;1.85;;;;;;;15.40;100.00;97713.09;5090492;28;20031;-47
2023/09/22 05:50:56;;;;;;;4.57;1.90;;;;;;;15.32;100.00;97713.56;5091775;28;20043;-46
2023/09/22 05:53:21;;;;;;;7.88;1.95;;;;;;;15.62;100.00;97717.44;5091763;28;20040;-46
2023/09/22 05:55:47;;;;;;;8.65;2.35;;;;;;;15.57;100.00;97726.97;5090322;28;20046;-46
2023/09/22 05:58:13;;;;;;;23.23;6.57;;;;;;;15.46;100.00;97725.28;5090409;28;20024;-46
2023/09/22 06:00:39;;;;;;;18.77;9.73;;;;;;;15.76;100.00;97723.91;5091613;28;20020;-46
2023/09/22 06:03:05;;;;;;;12.13;6.85;;;;;;;16.00;100.00;97721.63;5090353;28;20032;-46
2023/09/22 06:05:31;;;;;;;4.07;2.05;;;;;;;15.89;100.00;97727.91;5091165;28;20052;-46
2023/09/22 06:07:59;;;;;;;7.20;2.63;;;;;;;15.60;100.00;97723.00;5090374;28;20035;-46
2023/09/22 06:10:25;;;;;;;13.02;2.80;;;;;;;15.49;100.00;97723.97;5091520;28;20047;-46
2023/09/22 06:12:50;;;;;;;7.60;1.45;;;;;;;15.52;100.00;97729.56;5091614;28;20032;-46
2023/09/22 06:15:16;;;;;;;7.55;1.35;;;;;;;15.51;100.00;97727.16;5090309;28;20035;-46
2023/09/22 06:17:42;;;;;;;8.80;5.88;;;;;;;16.39;100.00;97729.13;5091766;28;20031;-46
2023/09/22 06:20:15;;;;;;;12.63;3.13;;;;;;;17.86;100.00;97733.91;5073338;28;20023;-46
2023/09/22 06:22:47;;;;;;;13.18;5.05;;;;;;;19.04;100.00;97733.25;5091428;28;20046;-46
2023/09/22 06:25:13;;;;;;;7.50;4.88;;;;;;;19.72;100.00;97721.72;5091332;28;20024;-46
2023/09/22 06:27:41;;;;;;;8.48;4.88;;;;;;;20.35;100.00;97718.00;5091668;28;20389;-44
2023/09/22 06:30:11;;;;;;;7.55;2.50;;;;;;;20.91;100.00;97714.50;5090566;28;20028;-44
2023/09/22 06:32:41;;;;;;;11.57;3.30;;;;;;;21.39;99.05;97720.63;5095135;28;20027;-44
2023/09/22 06:35:08;;;;;;;9.30;1.70;;;;;;;21.60;96.61;97724.56;5095094;28;20116;-44
2023/09/22 06:37:34;;;;;;;6.40;1.40;;;;;;;21.82;98.95;97715.84;5095038;28;20103;-44
2023/09/22 06:40:01;;;;;;;7.40;1.88;;;;;;;21.98;97.86;97712.88;5076965;28;20031;-44
2023/09/22 06:42:26;;;;;;;7.63;2.25;;;;;;;22.20;99.09;97714.84;5093677;28;20112;-44
2023/09/22 06:44:52;;;;;;;7.57;1.48;;;;;;;22.51;98.20;97710.41;5094880;28;20065;-44
2023/09/22 06:47:18;;;;;;;8.93;1.90;;;;;;;22.97;98.68;97721.13;5095198;28;20028;-44
2023/09/22 06:49:43;;;;;;;12.85;2.47;;;;;;;23.37;98.44;97713.97;5094891;28;20034;-45
2023/09/22 06:52:09;;;;;;;16.42;7.50;;;;;;;23.99;99.17;97715.81;5094891;28;20371;-44
2023/09/22 06:54:34;;;;;;;12.70;5.75;;;;;;;24.41;96.34;97720.75;5094793;28;20066;-44
2023/09/22 06:57:04;;;;;;;19.20;10.30;;;;;;;24.91;95.52;97721.09;5094773;28;20023;-45
2023/09/22 06:59:31;;;;;;;16.17;4.10;;;;;;;25.36;91.59;97727.97;5094722;28;20051;-44
2023/09/22 07:01:57;;;;;;;7.13;2.05;;;;;;;25.85;88.91;97724.91;5094945;28;20449;-45
2023/09/22 07:04:23;;;;;;;4.97;2.35;;;;;;;26.37;85.41;97726.53;5094390;28;20047;-44
2023/09/22 07:06:49;;;;;;;3.80;1.05;;;;;;;26.75;81.43;97721.03;5093268;28;20055;-44
2023/09/22 07:09:14;;;;;;;3.00;1.23;;;;;;;26.96;76.18;97712.88;5094596;28;20024;-45
2023/09/22 07:11:40;;;;;;;5.45;2.95;;;;;;;27.25;77.96;97717.38;5094451;28;20099;-45
2023/09/22 07:14:07;;;;;;;2.92;0.80;;;;;;;27.70;74.86;97721.91;5094373;28;20093;-45
2023/09/22 07:16:33;;;;;;;2.80;2.17;;;;;;;28.17;72.04;97718.00;5093051;28;20634;-45
2023/09/22 07:19:00;;;;;;;9.38;2.42;;;;;;;28.62;72.14;97711.59;5094289;28;20055;-45
2023/09/22 07:21:26;;;;;;;8.13;1.92;;;;;;;28.67;67.50;97715.94;5094197;28;20020;-45
2023/09/22 07:23:54;;;;;;;12.13;3.30;;;;;;;28.37;70.88;97720.84;5092896;28;20031;-45
2023/09/22 07:26:20;;;;;;;16.65;4.75;;;;;;;27.15;72.90;97722.41;5094071;28;20016;-45
2023/09/22 07:28:46;;;;;;;7.75;2.58;;;;;;;26.86;73.45;97726.78;5094158;28;20024;-45
2023/09/22 07:31:20;;;;;;;6.68;1.80;;;;;;;27.37;72.60;97735.47;5094064;28;20048;-45
2023/09/22 07:33:46;;;;;;;6.60;1.15;;;;;;;27.97;71.26;97727.78;5094115;28;20059;-45
2023/09/22 07:36:13;;;;;;;8.88;1.58;;;;;;;26.87;72.24;97739.91;5092727;28;20032;-45
2023/09/22 07:38:39;;;;;;;13.02;1.67;;;;;;;27.01;73.49;97749.63;5094032;28;20020;-45
2023/09/22 07:41:05;;;;;;;11.80;2.28;;;;;;;27.74;72.08;97740.91;5092644;28;20028;-45
2023/09/22 07:43:30;;;;;;;10.43;1.33;;;;;;;28.66;69.87;97736.78;5092961;28;20401;-45
2023/09/22 07:46:05;;;;;;;8.50;1.35;;;;;;;29.44;68.08;97742.72;5093721;28;20024;-45
2023/09/22 07:48:31;;;;;;;5.47;0.95;;;;;;;30.04;65.78;97755.34;5093755;28;20036;-45
2023/09/22 07:50:58;;;;;;;7.03;0.82;;;;;;;30.58;64.45;97745.72;5092404;28;20012;-45
2023/09/22 07:53:25;;;;;;;9.70;1.38;;;;;;;30.15;64.36;97748.25;5093670;28;20374;-45
2023/09/22 07:55:55;;;;;;;6.57;1.40;;;;;;;28.90;65.45;97758.63;5093550;28;20028;-45
2023/09/22 07:58:22;;;;;;;4.63;1.20;;;;;;;27.44;66.39;97772.66;5092360;28;20076;-45
2023/09/22 08:00:48;;;;;;;4.68;1.10;;;;;;;27.42;69.28;97775.66;5092302;28;20016;-45
2023/09/22 08:03:14;;;;;;;7.05;1.50;;;;;;;27.61;69.32;97769.78;5093486;28;20031;-45
2023/09/22 08:05:40;;;;;;;10.82;1.60;;;;;;;28.44;68.85;97765.03;5091668;28;20048;-45
2023/09/22 08:08:06;;;;;;;7.20;1.30;;;;;;;28.39;66.05;97770.69;5092049;28;20028;-45
2023/09/22 08:10:32;;;;;;;10.57;1.55;;;;;;;27.60;67.85;97778.97;5093252;28;20032;-45
2023/09/22 08:12:57;;;;;;;11.13;1.58;;;;;;;27.22;69.60;97779.19;5093260;28;20020;-45
2023/09/22 08:15:23;;;;;;;10.27;1.55;;;;;;;26.87;67.53;97777.59;5093221;28;20051;-45
2023/09/22 08:17:49;;;;;;;18.65;2.38;;;;;;;27.12;69.63;97783.09;5093117;28;20045;-45
2023/09/22 08:20:16;;;;;;;7.13;1.20;;;;;;;28.99;65.95;97780.88;5093096;28;20040;-45
2023/09/22 08:22:42;;;;;;;8.43;1.02;;;;;;;29.99;61.97;97786.16;5093077;28;20153;-45
2023/09/22 08:25:09;;;;;;;6.53;1.10;;;;;;;29.27;61.68;97791.69;5091551;28;20024;-45
2023/09/22 08:27:38;;;;;;;8.35;2.00;;;;;;;28.02;62.58;97799.59;5092904;28;20021;-45
2023/09/22 08:30:10;;;;;;;7.03;1.52;;;;;;;27.10;63.09;97790.72;5092922;28;20024;-45
2023/09/22 08:32:41;;;;;;;12.82;2.10;;;;;;;26.44;65.50;97796.72;5092918;28;20439;-45
2023/09/22 08:35:08;;;;;;;12.25;2.30;;;;;;;26.28;68.70;97794.63;5092946;28;20084;-45
2023/09/22 08:37:37;;;;;;;20.23;3.50;;;;;;;26.33;65.33;97800.94;5091480;28;20020;-45
2023/09/22 08:40:08;;;;;;;10.05;2.20;;;;;;;26.31;65.68;97803.94;5091436;28;20024;-45
2023/09/22 08:42:35;;;;;;;5.55;1.35;;;;;;;26.38;66.58;97804.22;5091416;28;20116;-45
2023/09/22 08:45:01;;;;;;;17.52;2.13;;;;;;;26.11;67.08;97805.47;5092803;28;20401;-45
2023/09/22 08:47:27;;;;;;;14.65;2.28;;;;;;;25.77;66.70;97806.38;5092543;28;20016;-45
2023/09/22 08:49:53;;;;;;;5.50;1.35;;;;;;;25.56;67.63;97815.13;5092548;28;20028;-45
2023/09/22 08:52:22;;;;;;;8.70;5.50;;;;;;;25.44;68.28;97818.47;5092663;28;20122;-45
2023/09/22 08:54:48;;;;;;;2.88;1.30;;;;;;;25.42;69.06;97823.38;5092311;28;20028;-45
2023/09/22 08:57:17;;;;;;;5.38;1.30;;;;;;;25.29;68.04;97822.47;5092288;28;20031;-45
2023/09/22 08:59:43;;;;;;;6.75;1.10;;;;;;;25.25;68.62;97829.59;5092455;28;20024;-45
2023/09/22 09:02:11;;;;;;;236.65;216.15;;;;;;;25.29;69.50;97829.72;5092362;28;20024;-45
2023/09/22 09:04:39;;;;;;;504.25;425.60;;;;;;;25.37;67.39;97836.19;5091936;28;20059;-45
2023/09/22 09:07:06;;;;;;;51.70;35.20;;;;;;;25.84;68.14;97826.28;5090993;28;20031;-45
2023/09/22 09:09:45;;;;;;;328.05;175.82;;;;;;;26.90;62.63;97814.66;5092114;28;20406;-45
2023/09/22 09:12:13;;;;;;;53.22;24.38;;;;;;;26.97;64.21;97824.88;5092090;28;20484;-45
2023/09/22 09:14:40;;;;;;;23.83;8.02;;;;;;;26.94;63.71;97819.38;5092215;28;20021;-45
2023/09/22 09:17:19;;;;;;;513.95;461.40;;;;;;;26.97;61.57;97818.72;5090711;28;20136;-45
2023/09/22 09:19:56;;;;;;;118.90;87.20;;;;;;;27.00;60.28;97823.44;5092145;28;20047;-45
2023/09/22 09:22:30;;;;;;;437.30;348.60;;;;;;;27.21;63.82;97821.50;5092003;28;20028;-45
2023/09/22 09:24:58;;;;;;;;;;;;;;;27.38;66.54;97817.09;5092349;28;20028;-45
2023/09/22 09:27:24;;;;;;;261.45;234.82;;;;;;;27.21;65.02;97824.19;5091974;28;19912;-45
2023/09/22 09:29:50;;;;;;;71.07;32.10;;;;;;;27.12;64.03;97820.78;5091948;28;20020;-45
2023/09/22 09:32:26;;;;;;;46.85;20.52;;;;;;;26.90;61.14;97820.03;5091973;28;20034;-45
2023/09/22 09:34:52;;;;;;;22.73;7.93;;;;;;;26.85;63.92;97822.91;5090960;28;20028;-45
2023/09/22 09:37:19;;;;;;;15.48;5.65;;;;;;;26.84;63.58;97818.66;5090580;28;20409;-45
2023/09/22 09:39:51;;;;;;;9.05;4.47;;;;;;;26.72;62.92;97813.19;5091801;28;20016;-45
2023/09/22 09:42:19;;;;;;;11.45;3.05;;;;;;;26.57;62.84;97816.44;5091869;28;20161;-45
2023/09/22 09:44:52;;;;;;;108.50;83.63;;;;;;;26.49;60.17;97812.69;5091697;28;20394;-45
2023/09/22 09:47:32;;;;;;;10.13;3.97;;;;;;;26.78;57.51;97805.72;5091799;28;20089;-45
2023/09/22 09:49:58;;;;;;;3.72;1.77;;;;;;;26.44;57.82;97807.50;5091876;28;20713;-45
2023/09/22 09:52:24;;;;;;;3.97;1.30;;;;;;;26.18;57.00;97804.94;5090429;28;20024;-45
2023/09/22 09:55:01;;;;;;;3.80;1.40;;;;;;;26.02;56.51;97807.44;5090472;28;20047;-45
2023/09/22 09:57:28;;;;;;;3.58;1.40;;;;;;;25.81;56.72;97813.47;5091786;28;20028;-45
2023/09/22 09:59:54;;;;;;;20.67;2.65;;;;;;;25.68;58.18;97801.81;5091775;28;20044;-45
2023/09/22 10:02:21;;;;;;;5.05;1.50;;;;;;;25.59;56.14;97800.25;5091646;28;20030;-45
2023/09/22 10:04:48;;;;;;;7.45;0.82;;;;;;;25.45;57.05;97800.47;5091341;28;20052;-45
2023/09/22 10:07:15;;;;;;;8.68;4.22;;;;;;;24.99;55.35;97801.91;5095598;28;20020;-45
2023/09/22 10:09:41;;;;;;;285.55;259.52;;;;;;;24.75;58.83;97807.75;5096020;28;20035;-45
2023/09/22 10:12:07;;;;;;;277.77;217.20;;;;;;;24.63;58.01;97805.69;5094295;28;20020;-45
2023/09/22 10:14:53;;;;;;;827.95;628.30;;;;;;;24.38;56.45;97809.88;5095554;28;20028;-45
2023/09/22 10:17:24;;;;;;;609.28;508.23;;;;;;;24.26;56.37;97810.47;5095529;28;20016;-44
2023/09/22 10:19:50;;;;;;;492.02;428.67;;;;;;;24.05;57.22;97805.69;5095460;28;20056;-45
2023/09/22 10:22:16;;;;;;;87.32;47.22;;;;;;;24.08;60.39;97802.38;5095430;28;20024;-44
2023/09/22 10:24:42;;;;;;;138.52;73.85;;;;;;;24.35;62.91;97805.13;5095292;28;20513;-45
2023/09/22 10:27:11;;;;;;;26.02;12.85;;;;;;;25.17;62.90;97800.00;5095550;28;20020;-45
2023/09/22 10:29:42;;;;;;;21.67;9.27;;;;;;;26.20;61.19;97791.97;5095279;28;20020;-45
2023/09/22 10:32:21;;;;;;;5.47;2.15;;;;;;;28.31;55.19;97790.47;5095253;28;20016;-45
2023/09/22 10:34:57;;;;;;;11.43;3.88;;;;;;;30.27;52.06;97783.34;5095260;28;20120;-45
2023/09/22 10:37:28;;;;;;;5.97;2.53;;;;;;;31.57;45.10;97777.78;5093819;28;20024;-45
2023/09/22 10:40:16;;;;;;;7.22;1.52;;;;;;;32.02;41.82;97777.00;5095035;28;20026;-46
2023/09/22 10:42:46;;;;;;;11.80;3.75;;;;;;;32.38;40.86;97772.09;5095043;28;20036;-46
2023/09/22 10:45:13;;;;;;;8.05;2.03;;;;;;;32.41;38.86;97776.00;5094898;28;20024;-46
2023/09/22 10:47:40;;;;;;;8.15;2.55;;;;;;;31.75;37.85;97778.09;5094032;28;20382;-46
2023/09/22 10:50:30;;;;;;;4.28;1.65;;;;;;;31.86;37.56;97781.78;5094827;28;20569;-46
2023/09/22 10:53:00;;;;;;;8.60;1.90;;;;;;;32.35;38.58;97774.75;5095129;28;20157;-46
2023/09/22 10:55:35;;;;;;;5.10;1.48;;;;;;;32.64;34.83;97762.38;5094762;28;20035;-46
2023/09/22 10:58:06;;;;;;;6.95;1.83;;;;;;;32.33;36.36;97768.91;5095019;28;20370;-46
2023/09/22 11:00:35;;;;;;;4.03;1.95;;;;;;;31.72;36.23;97765.28;5094733;28;20402;-45
2023/09/22 11:03:16;;;;;;;7.22;2.15;;;;;;;31.42;35.57;97772.09;5094654;28;20398;-45
2023/09/22 11:05:42;;;;;;;12.13;3.35;;;;;;;31.45;38.59;97773.34;5093092;28;20459;-46
2023/09/22 11:08:12;;;;;;;24.58;7.00;;;;;;;32.09;38.05;97775.53;5094530;28;20039;-46
2023/09/22 11:10:38;;;;;;;6.15;1.90;;;;;;;32.29;36.33;97768.06;5094472;28;20077;-45
2023/09/22 11:13:04;;;;;;;8.20;2.08;;;;;;;31.07;35.11;97780.38;5094440;28;20077;-45
2023/09/22 11:15:30;;;;;;;4.13;0.98;;;;;;;30.55;32.22;97779.72;5093186;28;20431;-46
2023/09/22 11:17:55;;;;;;;3.90;1.10;;;;;;;30.87;32.94;97774.16;5093030;28;20113;-46
2023/09/22 11:20:26;;;;;;;4.00;1.60;;;;;;;31.37;30.02;97777.03;5093019;28;20036;-46
2023/09/22 11:22:52;;;;;;;12.88;3.45;;;;;;;31.37;28.67;97779.75;5094348;28;20401;-46
2023/09/22 11:25:19;;;;;;;5.45;1.48;;;;;;;31.04;27.36;97775.66;5076097;28;20081;-46